Time,TemperatureF,DewpointF,PressureIn,WindDirection,WindDirectionDegrees,WindSpeedMPH,WindSpeedGustMPH,Humidity,HourlyPrecipIn,Conditions,Clouds,dailyrainin,SolarRadiationWatts/m^2,SoftwareType,DateUTC
2013-01-29 00:01:00,59.0,55.0,-100.00,South,188,7.0,13.0,87,0.00,,,0.08,0.000000,,2013-01-29 06:01:00,
2013-01-29 00:32:00,58.0,54.0,-100.00,South,180,6.0,14.0,88,0.00,,,0.08,0.000000,,2013-01-29 06:32:00,
2013-01-29 00:42:00,58.0,54.0,-100.00,South,180,6.0,14.0,88,0.00,,,0.08,0.000000,,2013-01-29 06:42:00,
2013-01-29 00:52:00,58.0,54.0,-100.00,South,180,6.0,14.0,88,0.00,,,0.08,0.000000,,2013-01-29 06:52:00,
2013-01-29 01:01:00,58.0,54.0,-100.00,South,180,6.0,14.0,88,0.00,,,0.08,0.000000,,2013-01-29 07:01:00,
2013-01-29 01:32:00,58.0,54.0,-100.00,South,188,6.0,13.0,88,0.00,,,0.08,0.000000,,2013-01-29 07:32:00,
2013-01-29 01:42:00,58.0,54.0,-100.00,South,188,6.0,13.0,88,0.00,,,0.08,0.000000,,2013-01-29 07:42:00,
2013-01-29 01:52:00,58.0,54.0,-100.00,South,188,6.0,13.0,88,0.00,,,0.08,0.000000,,2013-01-29 07:52:00,
2013-01-29 02:02:00,58.0,54.0,-100.00,South,188,6.0,13.0,88,0.00,,,0.08,0.000000,,2013-01-29 08:02:00,
2013-01-29 02:32:00,58.0,55.0,-100.00,South,187,8.0,14.0,89,0.00,,,0.08,0.000000,,2013-01-29 08:32:00,
2013-01-29 02:42:00,58.0,55.0,-100.00,South,187,8.0,14.0,89,0.00,,,0.08,0.000000,,2013-01-29 08:42:00,
2013-01-29 02:52:00,58.0,55.0,-100.00,South,187,8.0,14.0,89,0.00,,,0.08,0.000000,,2013-01-29 08:52:00,
2013-01-29 03:01:00,58.0,55.0,-100.00,South,187,8.0,14.0,89,0.00,,,0.08,0.000000,,2013-01-29 09:01:00,
2013-01-29 03:32:00,59.0,56.0,-100.00,SSW,194,7.0,15.0,89,0.00,,,0.08,0.000000,,2013-01-29 09:32:00,
2013-01-29 03:42:00,59.0,56.0,-100.00,SSW,194,7.0,15.0,89,0.00,,,0.08,0.000000,,2013-01-29 09:42:00,
2013-01-29 03:52:00,59.0,56.0,-100.00,SSW,194,7.0,15.0,89,0.00,,,0.08,0.000000,,2013-01-29 09:52:00,
2013-01-29 04:01:00,59.0,56.0,-100.00,SSW,194,7.0,15.0,89,0.00,,,0.08,0.000000,,2013-01-29 10:01:00,
2013-01-29 04:32:00,60.0,57.0,-100.00,SSW,193,7.0,15.0,89,0.00,,,0.08,0.000000,,2013-01-29 10:32:00,
2013-01-29 04:42:00,60.0,57.0,-100.00,SSW,193,7.0,15.0,89,0.00,,,0.08,0.000000,,2013-01-29 10:42:00,
2013-01-29 04:52:00,60.0,57.0,-100.00,SSW,193,7.0,15.0,89,0.00,,,0.08,0.000000,,2013-01-29 10:52:00,
2013-01-29 05:02:00,60.0,57.0,-100.00,SSW,193,7.0,15.0,89,0.00,,,0.08,0.000000,,2013-01-29 11:02:00,
2013-01-29 05:32:00,61.0,57.0,-100.00,SSW,197,6.0,16.0,88,0.00,,,0.08,0.000000,,2013-01-29 11:32:00,
2013-01-29 05:42:00,61.0,57.0,-100.00,SSW,197,6.0,16.0,88,0.00,,,0.08,0.000000,,2013-01-29 11:42:00,
2013-01-29 05:53:00,61.0,57.0,-100.00,SSW,197,6.0,16.0,88,0.00,,,0.08,0.000000,,2013-01-29 11:53:00,
2013-01-29 06:02:00,61.0,57.0,-100.00,SSW,197,6.0,16.0,88,0.00,,,0.08,0.000000,,2013-01-29 12:02:00,
2013-01-29 06:33:00,61.0,57.0,-100.00,South,186,7.0,13.0,88,0.00,,,0.08,0.000000,,2013-01-29 12:33:00,
2013-01-29 06:43:00,61.0,57.0,-100.00,South,186,7.0,13.0,88,0.00,,,0.08,0.000000,,2013-01-29 12:43:00,
2013-01-29 06:53:00,61.0,57.0,-100.00,South,186,7.0,13.0,88,0.00,,,0.08,0.000000,,2013-01-29 12:53:00,
2013-01-29 07:02:00,61.0,57.0,-100.00,South,186,7.0,13.0,88,0.00,,,0.08,0.000000,,2013-01-29 13:02:00,
2013-01-29 07:32:00,60.0,57.0,-100.00,South,189,8.0,17.0,89,0.00,,,0.02,0.000000,,2013-01-29 13:32:00,
2013-01-29 07:43:00,60.0,57.0,-100.00,South,189,8.0,17.0,89,0.00,,,0.02,0.000000,,2013-01-29 13:43:00,
2013-01-29 07:52:00,60.0,57.0,-100.00,South,189,8.0,17.0,89,0.00,,,0.02,0.000000,,2013-01-29 13:52:00,
2013-01-29 08:02:00,60.0,57.0,-100.00,South,189,8.0,17.0,89,0.00,,,0.02,0.000000,,2013-01-29 14:02:00,
2013-01-29 08:33:00,61.0,58.0,-100.00,SSW,197,8.0,18.0,90,0.00,,,0.02,7.000000,,2013-01-29 14:33:00,
2013-01-29 08:43:00,61.0,58.0,-100.00,SSW,197,8.0,18.0,90,0.00,,,0.02,7.000000,,2013-01-29 14:43:00,
2013-01-29 08:53:00,61.0,58.0,-100.00,SSW,197,8.0,18.0,90,0.00,,,0.02,7.000000,,2013-01-29 14:53:00,
2013-01-29 09:02:00,61.0,58.0,-100.00,SSW,197,8.0,18.0,90,0.00,,,0.02,7.000000,,2013-01-29 15:02:00,
2013-01-29 09:33:00,61.0,58.0,-100.00,South,185,6.0,17.0,90,0.00,,,0.02,28.000000,,2013-01-29 15:33:00,
2013-01-29 09:43:00,61.0,58.0,-100.00,South,185,6.0,17.0,90,0.00,,,0.02,28.000000,,2013-01-29 15:43:00,
2013-01-29 09:53:00,61.0,58.0,-100.00,South,185,6.0,17.0,90,0.00,,,0.02,28.000000,,2013-01-29 15:53:00,
2013-01-29 10:02:00,61.0,58.0,-100.00,South,185,6.0,17.0,90,0.00,,,0.02,28.000000,,2013-01-29 16:02:00,
2013-01-29 10:33:00,62.0,58.0,-100.00,South,183,7.0,19.0,86,0.00,,,0.02,63.000000,,2013-01-29 16:33:00,
2013-01-29 10:43:00,62.0,58.0,-100.00,South,183,7.0,19.0,86,0.00,,,0.02,63.000000,,2013-01-29 16:43:00,
2013-01-29 10:53:00,62.0,58.0,-100.00,South,183,7.0,19.0,86,0.00,,,0.02,63.000000,,2013-01-29 16:53:00,
2013-01-29 11:03:00,62.0,58.0,-100.00,South,183,7.0,19.0,86,0.00,,,0.02,63.000000,,2013-01-29 17:03:00,
2013-01-29 11:33:00,65.0,59.0,-100.00,South,186,8.0,21.0,80,0.00,,,0.01,122.000000,,2013-01-29 17:33:00,
2013-01-29 11:42:00,65.0,59.0,-100.00,South,186,8.0,21.0,80,0.00,,,0.01,122.000000,,2013-01-29 17:42:00,
2013-01-29 11:52:00,65.0,59.0,-100.00,South,186,8.0,21.0,80,0.00,,,0.01,122.000000,,2013-01-29 17:52:00,
2013-01-29 12:33:00,66.0,58.0,-100.00,SSW,194,9.0,20.0,75,0.00,,,0.01,206.000000,,2013-01-29 18:33:00,
2013-01-29 12:42:00,66.0,58.0,-100.00,SSW,194,9.0,20.0,75,0.00,,,0.01,206.000000,,2013-01-29 18:42:00,
2013-01-29 12:52:00,66.0,58.0,-100.00,SSW,194,9.0,20.0,75,0.00,,,0.01,206.000000,,2013-01-29 18:52:00,
2013-01-29 13:02:00,66.0,58.0,-100.00,SSW,194,9.0,20.0,75,0.00,,,0.01,206.000000,,2013-01-29 19:02:00,
2013-01-29 13:33:00,67.0,58.0,-100.00,South,175,9.0,18.0,74,0.00,,,0.00,248.000000,,2013-01-29 19:33:00,
2013-01-29 13:42:00,67.0,58.0,-100.00,South,175,9.0,18.0,74,0.00,,,0.00,248.000000,,2013-01-29 19:42:00,
2013-01-29 13:52:00,67.0,58.0,-100.00,South,175,9.0,18.0,74,0.00,,,0.00,248.000000,,2013-01-29 19:52:00,
2013-01-29 14:02:00,67.0,58.0,-100.00,South,175,9.0,18.0,74,0.00,,,0.00,248.000000,,2013-01-29 20:02:00,
2013-01-29 14:33:00,68.0,59.0,-100.00,South,190,9.0,20.0,72,0.00,,,0.00,272.000000,,2013-01-29 20:33:00,
2013-01-29 14:42:00,68.0,59.0,-100.00,South,190,9.0,20.0,72,0.00,,,0.00,272.000000,,2013-01-29 20:42:00,
2013-01-29 14:53:00,68.0,59.0,-100.00,South,190,9.0,20.0,72,0.00,,,0.00,272.000000,,2013-01-29 20:53:00,
2013-01-29 15:03:00,68.0,59.0,-100.00,South,190,9.0,20.0,72,0.00,,,0.00,272.000000,,2013-01-29 21:03:00,
2013-01-29 15:34:00,70.0,59.0,-100.00,South,187,8.0,26.0,68,0.00,,,0.00,249.000000,,2013-01-29 21:34:00,
2013-01-29 15:42:00,70.0,59.0,-100.00,South,187,8.0,26.0,68,0.00,,,0.00,249.000000,,2013-01-29 21:42:00,
2013-01-29 15:53:00,70.0,59.0,-100.00,South,187,8.0,26.0,68,0.00,,,0.00,249.000000,,2013-01-29 21:53:00,
2013-01-29 16:02:00,70.0,59.0,-100.00,South,187,8.0,26.0,68,0.00,,,0.00,249.000000,,2013-01-29 22:02:00,
2013-01-29 16:33:00,68.0,58.0,-100.00,South,182,8.0,22.0,71,0.00,,,0.00,164.000000,,2013-01-29 22:33:00,
2013-01-29 16:42:00,68.0,58.0,-100.00,South,182,8.0,22.0,71,0.00,,,0.00,164.000000,,2013-01-29 22:42:00,
2013-01-29 16:53:00,68.0,58.0,-100.00,South,182,8.0,22.0,71,0.00,,,0.00,164.000000,,2013-01-29 22:53:00,
2013-01-29 17:02:00,68.0,58.0,-100.00,South,182,8.0,22.0,71,0.00,,,0.00,164.000000,,2013-01-29 23:02:00,
2013-01-29 17:33:00,66.0,58.0,-100.00,South,171,8.0,17.0,75,0.00,,,0.00,50.000000,,2013-01-29 23:33:00,
2013-01-29 17:42:00,66.0,58.0,-100.00,South,171,8.0,17.0,75,0.00,,,0.00,50.000000,,2013-01-29 23:42:00,
2013-01-29 17:53:00,66.0,58.0,-100.00,South,171,8.0,17.0,75,0.00,,,0.00,50.000000,,2013-01-29 23:53:00,
2013-01-29 18:03:00,66.0,58.0,-100.00,South,171,8.0,17.0,75,0.00,,,0.00,50.000000,,2013-01-30 00:03:00,
2013-01-29 18:33:00,65.0,58.0,-100.00,SSE,155,11.0,21.0,79,0.00,,,-99.99,1.000000,,2013-01-30 00:33:00,
2013-01-29 18:43:00,65.0,58.0,-100.00,SSE,155,11.0,21.0,79,0.00,,,-99.99,1.000000,,2013-01-30 00:43:00,
2013-01-29 18:53:00,65.0,58.0,-100.00,SSE,155,11.0,21.0,79,0.00,,,-99.99,1.000000,,2013-01-30 00:53:00,
2013-01-29 19:02:00,65.0,58.0,-100.00,SSE,155,11.0,21.0,79,0.00,,,-99.99,1.000000,,2013-01-30 01:02:00,
2013-01-29 19:32:00,66.0,59.0,-100.00,SSE,163,11.0,25.0,79,0.00,,,0.00,0.000000,,2013-01-30 01:32:00,
2013-01-29 19:43:00,66.0,59.0,-100.00,SSE,163,11.0,25.0,79,0.00,,,0.00,0.000000,,2013-01-30 01:43:00,
2013-01-29 19:52:00,66.0,59.0,-100.00,SSE,163,11.0,25.0,79,0.00,,,0.00,0.000000,,2013-01-30 01:52:00,
2013-01-29 20:02:00,66.0,59.0,-100.00,SSE,163,11.0,25.0,79,0.00,,,0.00,0.000000,,2013-01-30 02:02:00,
2013-01-29 20:33:00,67.0,60.0,-100.00,SSE,167,11.0,24.0,77,0.00,,,0.00,0.000000,,2013-01-30 02:33:00,
2013-01-29 20:42:00,67.0,60.0,-100.00,SSE,167,11.0,24.0,77,0.00,,,0.00,0.000000,,2013-01-30 02:42:00,
2013-01-29 20:53:00,67.0,60.0,-100.00,SSE,167,11.0,24.0,77,0.00,,,0.00,0.000000,,2013-01-30 02:53:00,
2013-01-29 21:03:00,67.0,60.0,-100.00,SSE,167,11.0,24.0,77,0.00,,,0.00,0.000000,,2013-01-30 03:03:00,
2013-01-29 21:32:00,69.0,60.0,-100.00,South,173,12.0,29.0,74,0.00,,,0.00,0.000000,,2013-01-30 03:32:00,
2013-01-29 21:42:00,69.0,60.0,-100.00,South,173,12.0,29.0,74,0.00,,,0.00,0.000000,,2013-01-30 03:42:00,
2013-01-29 21:52:00,69.0,60.0,-100.00,South,173,12.0,29.0,74,0.00,,,0.00,0.000000,,2013-01-30 03:52:00,
2013-01-29 22:02:00,69.0,60.0,-100.00,South,173,12.0,29.0,74,0.00,,,0.00,0.000000,,2013-01-30 04:02:00,
2013-01-29 22:32:00,70.0,60.0,-100.00,South,174,13.0,33.0,71,0.00,,,0.00,0.000000,,2013-01-30 04:32:00,
2013-01-29 22:42:00,70.0,60.0,-100.00,South,174,13.0,33.0,71,0.00,,,0.00,0.000000,,2013-01-30 04:42:00,
2013-01-29 22:52:00,70.0,60.0,-100.00,South,174,13.0,33.0,71,0.00,,,0.00,0.000000,,2013-01-30 04:52:00,
2013-01-29 23:03:00,70.0,60.0,-100.00,South,174,13.0,33.0,71,0.00,,,0.00,0.000000,,2013-01-30 05:03:00,
2013-01-29 23:32:00,54.0,52.0,-100.00,NNW,330,14.0,33.0,94,0.42,,,0.42,0.000000,,2013-01-30 05:32:00,
2013-01-29 23:43:00,54.0,52.0,-100.00,NNW,330,14.0,33.0,94,0.42,,,0.42,0.000000,,2013-01-30 05:43:00,
2013-01-29 23:52:00,54.0,52.0,-100.00,NNW,330,14.0,33.0,94,0.42,,,0.42,0.000000,,2013-01-30 05:52:00,